sensor_id;sensor_type;location;lat;lon;timestamp;temperature;humidity
21425;DHT22;10873;51.132;16.848;2023-05-20T00:00:44;25.40;57.60
21425;DHT22;10873;51.132;16.848;2023-05-20T00:03:18;25.40;57.60
21425;DHT22;10873;51.132;16.848;2023-05-20T00:05:48;25.40;57.60
21425;DHT22;10873;51.132;16.848;2023-05-20T00:08:14;25.40;57.60
21425;DHT22;10873;51.132;16.848;2023-05-20T00:10:41;25.40;57.60
21425;DHT22;10873;51.132;16.848;2023-05-20T00:13:07;25.40;57.60
21425;DHT22;10873;51.132;16.848;2023-05-20T00:15:33;25.40;57.60
21425;DHT22;10873;51.132;16.848;2023-05-20T00:18:01;25.40;57.60
21425;DHT22;10873;51.132;16.848;2023-05-20T00:20:27;25.40;57.60
21425;DHT22;10873;51.132;16.848;2023-05-20T00:22:53;25.40;57.60
21425;DHT22;10873;51.132;16.848;2023-05-20T00:25:19;25.40;57.60
21425;DHT22;10873;51.132;16.848;2023-05-20T00:27:47;25.40;57.60
21425;DHT22;10873;51.132;16.848;2023-05-20T00:30:13;25.40;57.60
21425;DHT22;10873;51.132;16.848;2023-05-20T00:32:39;25.40;57.60
21425;DHT22;10873;51.132;16.848;2023-05-20T00:35:06;25.40;57.60
21425;DHT22;10873;51.132;16.848;2023-05-20T00:37:33;25.40;57.60
21425;DHT22;10873;51.132;16.848;2023-05-20T00:39:59;25.40;57.60
21425;DHT22;10873;51.132;16.848;2023-05-20T00:42:26;25.40;57.60
21425;DHT22;10873;51.132;16.848;2023-05-20T00:44:54;25.40;57.60
21425;DHT22;10873;51.132;16.848;2023-05-20T00:47:24;25.40;57.60
21425;DHT22;10873;51.132;16.848;2023-05-20T00:49:51;25.40;58.00
21425;DHT22;10873;51.132;16.848;2023-05-20T00:52:17;25.40;57.60
21425;DHT22;10873;51.132;16.848;2023-05-20T00:54:44;25.40;57.60
21425;DHT22;10873;51.132;16.848;2023-05-20T00:57:11;25.40;57.60
21425;DHT22;10873;51.132;16.848;2023-05-20T00:59:38;25.40;57.60
21425;DHT22;10873;51.132;16.848;2023-05-20T01:02:06;25.40;57.60
21425;DHT22;10873;51.132;16.848;2023-05-20T01:04:32;25.40;57.60
21425;DHT22;10873;51.132;16.848;2023-05-20T01:07:01;25.40;57.60
21425;DHT22;10873;51.132;16.848;2023-05-20T01:09:28;25.40;57.60
21425;DHT22;10873;51.132;16.848;2023-05-20T01:12:05;25.40;57.60
21425;DHT22;10873;51.132;16.848;2023-05-20T01:14:36;25.40;57.70
21425;DHT22;10873;51.132;16.848;2023-05-20T01:17:08;25.40;57.60
21425;DHT22;10873;51.132;16.848;2023-05-20T01:19:40;25.40;57.60
21425;DHT22;10873;51.132;16.848;2023-05-20T01:22:10;25.40;57.60
21425;DHT22;10873;51.132;16.848;2023-05-20T01:24:39;25.40;57.60
21425;DHT22;10873;51.132;16.848;2023-05-20T01:27:07;25.40;57.60
21425;DHT22;10873;51.132;16.848;2023-05-20T01:29:35;25.40;57.60
21425;DHT22;10873;51.132;16.848;2023-05-20T01:32:04;25.40;57.70
21425;DHT22;10873;51.132;16.848;2023-05-20T01:34:31;25.30;57.60
21425;DHT22;10873;51.132;16.848;2023-05-20T01:36:58;25.30;57.60
21425;DHT22;10873;51.132;16.848;2023-05-20T01:39:25;25.30;57.60
21425;DHT22;10873;51.132;16.848;2023-05-20T01:41:53;25.30;57.60
21425;DHT22;10873;51.132;16.848;2023-05-20T01:44:20;25.30;57.60
21425;DHT22;10873;51.132;16.848;2023-05-20T01:46:48;25.40;57.60
21425;DHT22;10873;51.132;16.848;2023-05-20T01:49:14;25.40;57.60
21425;DHT22;10873;51.132;16.848;2023-05-20T01:51:40;25.40;57.60
21425;DHT22;10873;51.132;16.848;2023-05-20T01:54:06;25.40;57.60
21425;DHT22;10873;51.132;16.848;2023-05-20T01:56:33;25.40;57.50
21425;DHT22;10873;51.132;16.848;2023-05-20T01:59:00;25.40;57.50
21425;DHT22;10873;51.132;16.848;2023-05-20T02:01:26;25.40;57.50
21425;DHT22;10873;51.132;16.848;2023-05-20T02:03:52;25.40;57.40
21425;DHT22;10873;51.132;16.848;2023-05-20T02:06:18;25.40;57.50
21425;DHT22;10873;51.132;16.848;2023-05-20T02:08:44;25.40;57.40
21425;DHT22;10873;51.132;16.848;2023-05-20T02:11:10;25.40;57.40
21425;DHT22;10873;51.132;16.848;2023-05-20T02:13:36;25.40;57.40
21425;DHT22;10873;51.132;16.848;2023-05-20T02:16:04;25.40;57.40
21425;DHT22;10873;51.132;16.848;2023-05-20T02:18:30;25.40;57.40
21425;DHT22;10873;51.132;16.848;2023-05-20T02:21:01;25.40;57.40
21425;DHT22;10873;51.132;16.848;2023-05-20T02:23:26;25.40;57.40
21425;DHT22;10873;51.132;16.848;2023-05-20T02:25:52;25.40;57.40
21425;DHT22;10873;51.132;16.848;2023-05-20T02:28:18;25.40;57.40
21425;DHT22;10873;51.132;16.848;2023-05-20T02:30:44;25.40;57.40
21425;DHT22;10873;51.132;16.848;2023-05-20T02:33:12;25.40;57.40
21425;DHT22;10873;51.132;16.848;2023-05-20T02:35:39;25.40;57.40
21425;DHT22;10873;51.132;16.848;2023-05-20T02:38:05;25.40;57.40
21425;DHT22;10873;51.132;16.848;2023-05-20T02:40:31;25.40;57.40
21425;DHT22;10873;51.132;16.848;2023-05-20T02:42:57;25.40;57.40
21425;DHT22;10873;51.132;16.848;2023-05-20T02:45:23;25.40;57.40
21425;DHT22;10873;51.132;16.848;2023-05-20T02:47:49;25.40;57.40
21425;DHT22;10873;51.132;16.848;2023-05-20T02:50:16;25.40;57.50
21425;DHT22;10873;51.132;16.848;2023-05-20T02:52:42;25.40;57.50
21425;DHT22;10873;51.132;16.848;2023-05-20T02:55:10;25.30;57.40
21425;DHT22;10873;51.132;16.848;2023-05-20T02:57:36;25.40;57.50
21425;DHT22;10873;51.132;16.848;2023-05-20T03:00:04;25.40;57.50
21425;DHT22;10873;51.132;16.848;2023-05-20T03:02:31;25.30;58.00
21425;DHT22;10873;51.132;16.848;2023-05-20T03:04:58;25.30;57.40
21425;DHT22;10873;51.132;16.848;2023-05-20T03:07:25;25.30;57.40
21425;DHT22;10873;51.132;16.848;2023-05-20T03:09:51;25.30;57.50
21425;DHT22;10873;51.132;16.848;2023-05-20T03:12:17;25.30;57.50
21425;DHT22;10873;51.132;16.848;2023-05-20T03:14:43;25.30;57.50
21425;DHT22;10873;51.132;16.848;2023-05-20T03:17:10;25.30;57.50
21425;DHT22;10873;51.132;16.848;2023-05-20T03:19:36;25.30;57.50
21425;DHT22;10873;51.132;16.848;2023-05-20T03:22:02;25.30;57.50
21425;DHT22;10873;51.132;16.848;2023-05-20T03:24:30;25.30;57.50
21425;DHT22;10873;51.132;16.848;2023-05-20T03:26:56;25.30;57.50
21425;DHT22;10873;51.132;16.848;2023-05-20T03:29:22;25.30;57.50
21425;DHT22;10873;51.132;16.848;2023-05-20T03:31:48;25.30;57.50
21425;DHT22;10873;51.132;16.848;2023-05-20T03:34:14;25.30;57.50
21425;DHT22;10873;51.132;16.848;2023-05-20T03:36:40;25.20;57.40
21425;DHT22;10873;51.132;16.848;2023-05-20T03:39:06;25.20;57.40
21425;DHT22;10873;51.132;16.848;2023-05-20T03:41:34;25.20;57.40
21425;DHT22;10873;51.132;16.848;2023-05-20T03:44:00;25.20;57.40
21425;DHT22;10873;51.132;16.848;2023-05-20T03:46:26;25.20;57.40
21425;DHT22;10873;51.132;16.848;2023-05-20T03:48:52;25.20;57.40
21425;DHT22;10873;51.132;16.848;2023-05-20T03:51:18;25.20;57.40
21425;DHT22;10873;51.132;16.848;2023-05-20T03:53:44;25.20;57.40
21425;DHT22;10873;51.132;16.848;2023-05-20T03:56:10;25.30;57.50
21425;DHT22;10873;51.132;16.848;2023-05-20T03:58:37;25.20;57.40
21425;DHT22;10873;51.132;16.848;2023-05-20T04:01:04;25.30;57.50
21425;DHT22;10873;51.132;16.848;2023-05-20T04:03:30;25.20;57.30
21425;DHT22;10873;51.132;16.848;2023-05-20T04:05:56;25.20;57.30
21425;DHT22;10873;51.132;16.848;2023-05-20T04:08:22;25.30;57.50
21425;DHT22;10873;51.132;16.848;2023-05-20T04:10:50;25.30;57.40
21425;DHT22;10873;51.132;16.848;2023-05-20T04:13:20;25.30;57.40
21425;DHT22;10873;51.132;16.848;2023-05-20T04:15:47;25.30;57.40
21425;DHT22;10873;51.132;16.848;2023-05-20T04:18:13;25.30;57.40
21425;DHT22;10873;51.132;16.848;2023-05-20T04:20:39;25.30;57.40
21425;DHT22;10873;51.132;16.848;2023-05-20T04:23:08;25.30;57.40
21425;DHT22;10873;51.132;16.848;2023-05-20T04:25:34;25.30;57.40
21425;DHT22;10873;51.132;16.848;2023-05-20T04:28:00;25.30;57.30
21425;DHT22;10873;51.132;16.848;2023-05-20T04:30:27;25.30;57.40
21425;DHT22;10873;51.132;16.848;2023-05-20T04:32:54;25.30;57.30
21425;DHT22;10873;51.132;16.848;2023-05-20T04:35:20;25.30;57.30
21425;DHT22;10873;51.132;16.848;2023-05-20T04:37:46;25.30;57.40
21425;DHT22;10873;51.132;16.848;2023-05-20T04:40:13;25.30;57.30
21425;DHT22;10873;51.132;16.848;2023-05-20T04:42:39;25.30;57.30
21425;DHT22;10873;51.132;16.848;2023-05-20T04:45:06;25.30;57.30
21425;DHT22;10873;51.132;16.848;2023-05-20T04:47:33;25.30;57.30
21425;DHT22;10873;51.132;16.848;2023-05-20T04:50:05;25.30;57.30
21425;DHT22;10873;51.132;16.848;2023-05-20T04:52:31;25.30;57.30
21425;DHT22;10873;51.132;16.848;2023-05-20T04:54:57;25.30;57.30
21425;DHT22;10873;51.132;16.848;2023-05-20T04:57:26;25.30;57.30
21425;DHT22;10873;51.132;16.848;2023-05-20T04:59:52;25.30;57.20
21425;DHT22;10873;51.132;16.848;2023-05-20T05:02:18;25.30;57.20
21425;DHT22;10873;51.132;16.848;2023-05-20T05:04:44;25.30;57.20
21425;DHT22;10873;51.132;16.848;2023-05-20T05:07:12;25.30;57.20
21425;DHT22;10873;51.132;16.848;2023-05-20T05:09:38;25.30;57.30
21425;DHT22;10873;51.132;16.848;2023-05-20T05:12:04;25.30;57.30
21425;DHT22;10873;51.132;16.848;2023-05-20T05:14:30;25.30;57.20
21425;DHT22;10873;51.132;16.848;2023-05-20T05:16:56;25.30;57.20
21425;DHT22;10873;51.132;16.848;2023-05-20T05:19:22;25.30;57.20
21425;DHT22;10873;51.132;16.848;2023-05-20T05:21:48;25.30;57.20
21425;DHT22;10873;51.132;16.848;2023-05-20T05:24:16;25.30;57.20
21425;DHT22;10873;51.132;16.848;2023-05-20T05:26:42;25.30;57.20
21425;DHT22;10873;51.132;16.848;2023-05-20T05:29:08;25.30;57.30
21425;DHT22;10873;51.132;16.848;2023-05-20T05:31:34;25.30;57.20
21425;DHT22;10873;51.132;16.848;2023-05-20T05:34:00;25.30;57.20
21425;DHT22;10873;51.132;16.848;2023-05-20T05:36:26;25.30;57.20
21425;DHT22;10873;51.132;16.848;2023-05-20T05:38:52;25.30;57.20
21425;DHT22;10873;51.132;16.848;2023-05-20T05:41:20;25.40;57.30
21425;DHT22;10873;51.132;16.848;2023-05-20T05:43:46;25.30;57.20
21425;DHT22;10873;51.132;16.848;2023-05-20T05:46:12;25.40;57.20
21425;DHT22;10873;51.132;16.848;2023-05-20T05:48:39;25.40;57.20
21425;DHT22;10873;51.132;16.848;2023-05-20T05:51:07;25.40;57.30
21425;DHT22;10873;51.132;16.848;2023-05-20T05:53:33;25.40;57.20
21425;DHT22;10873;51.132;16.848;2023-05-20T05:55:59;25.40;57.20
21425;DHT22;10873;51.132;16.848;2023-05-20T05:58:26;25.40;57.20
21425;DHT22;10873;51.132;16.848;2023-05-20T06:00:52;25.30;57.20
21425;DHT22;10873;51.132;16.848;2023-05-20T06:03:19;25.40;57.20
21425;DHT22;10873;51.132;16.848;2023-05-20T06:05:45;25.30;57.20
21425;DHT22;10873;51.132;16.848;2023-05-20T06:08:14;25.30;57.20
21425;DHT22;10873;51.132;16.848;2023-05-20T06:10:40;25.40;57.20
21425;DHT22;10873;51.132;16.848;2023-05-20T06:13:09;25.40;57.20
21425;DHT22;10873;51.132;16.848;2023-05-20T06:15:38;25.40;57.30
21425;DHT22;10873;51.132;16.848;2023-05-20T06:18:04;25.40;57.20
21425;DHT22;10873;51.132;16.848;2023-05-20T06:20:30;25.40;57.30
21425;DHT22;10873;51.132;16.848;2023-05-20T06:22:56;25.40;57.30
21425;DHT22;10873;51.132;16.848;2023-05-20T06:25:23;25.40;57.20
21425;DHT22;10873;51.132;16.848;2023-05-20T06:27:49;25.40;57.20
21425;DHT22;10873;51.132;16.848;2023-05-20T06:30:15;25.40;57.20
21425;DHT22;10873;51.132;16.848;2023-05-20T06:32:44;25.40;57.20
21425;DHT22;10873;51.132;16.848;2023-05-20T06:35:10;25.40;57.20
21425;DHT22;10873;51.132;16.848;2023-05-20T06:37:36;25.40;57.20
21425;DHT22;10873;51.132;16.848;2023-05-20T06:40:04;25.40;57.20
21425;DHT22;10873;51.132;16.848;2023-05-20T06:42:30;25.40;57.20
21425;DHT22;10873;51.132;16.848;2023-05-20T06:44:56;25.40;57.20
21425;DHT22;10873;51.132;16.848;2023-05-20T06:47:22;25.40;57.20
21425;DHT22;10873;51.132;16.848;2023-05-20T06:49:50;25.40;57.20
21425;DHT22;10873;51.132;16.848;2023-05-20T06:52:16;25.40;57.30
21425;DHT22;10873;51.132;16.848;2023-05-20T06:57:52;25.30;58.00
21425;DHT22;10873;51.132;16.848;2023-05-20T07:00:18;25.30;58.50
21425;DHT22;10873;51.132;16.848;2023-05-20T07:02:44;25.30;58.50
21425;DHT22;10873;51.132;16.848;2023-05-20T07:05:12;25.20;58.50
21425;DHT22;10873;51.132;16.848;2023-05-20T07:07:38;25.20;58.60
21425;DHT22;10873;51.132;16.848;2023-05-20T07:10:05;25.20;58.70
21425;DHT22;10873;51.132;16.848;2023-05-20T07:12:32;25.20;58.70
21425;DHT22;10873;51.132;16.848;2023-05-20T07:14:58;25.10;58.70
21425;DHT22;10873;51.132;16.848;2023-05-20T07:17:24;25.10;58.70
21425;DHT22;10873;51.132;16.848;2023-05-20T07:19:50;25.10;58.80
21425;DHT22;10873;51.132;16.848;2023-05-20T07:22:17;25.10;58.80
21425;DHT22;10873;51.132;16.848;2023-05-20T07:24:44;25.00;58.90
21425;DHT22;10873;51.132;16.848;2023-05-20T07:27:10;25.00;59.00
21425;DHT22;10873;51.132;16.848;2023-05-20T07:29:36;25.00;59.00
21425;DHT22;10873;51.132;16.848;2023-05-20T07:32:03;24.90;59.20
21425;DHT22;10873;51.132;16.848;2023-05-20T07:34:30;24.90;59.40
21425;DHT22;10873;51.132;16.848;2023-05-20T07:36:56;24.90;59.50
21425;DHT22;10873;51.132;16.848;2023-05-20T07:39:24;24.80;59.60
21425;DHT22;10873;51.132;16.848;2023-05-20T07:41:49;24.80;59.50
21425;DHT22;10873;51.132;16.848;2023-05-20T07:44:16;24.80;59.80
21425;DHT22;10873;51.132;16.848;2023-05-20T07:46:43;24.80;59.50
21425;DHT22;10873;51.132;16.848;2023-05-20T07:49:10;24.80;59.50
21425;DHT22;10873;51.132;16.848;2023-05-20T07:51:36;24.80;59.40
21425;DHT22;10873;51.132;16.848;2023-05-20T07:54:02;24.80;59.40
21425;DHT22;10873;51.132;16.848;2023-05-20T07:56:29;24.80;59.10
21425;DHT22;10873;51.132;16.848;2023-05-20T07:58:58;24.80;59.00
21425;DHT22;10873;51.132;16.848;2023-05-20T08:01:24;24.90;59.00
21425;DHT22;10873;51.132;16.848;2023-05-20T08:03:50;24.90;59.00
21425;DHT22;10873;51.132;16.848;2023-05-20T08:06:17;24.90;59.00
21425;DHT22;10873;51.132;16.848;2023-05-20T08:08:45;25.00;58.90
21425;DHT22;10873;51.132;16.848;2023-05-20T08:11:11;25.00;58.80
21425;DHT22;10873;51.132;16.848;2023-05-20T08:13:42;25.00;58.80
21425;DHT22;10873;51.132;16.848;2023-05-20T08:16:08;25.10;58.70
21425;DHT22;10873;51.132;16.848;2023-05-20T08:18:34;25.20;58.70
21425;DHT22;10873;51.132;16.848;2023-05-20T08:21:04;25.20;58.60
21425;DHT22;10873;51.132;16.848;2023-05-20T08:23:31;25.20;58.40
21425;DHT22;10873;51.132;16.848;2023-05-20T08:25:57;25.30;58.40
21425;DHT22;10873;51.132;16.848;2023-05-20T08:28:27;25.30;58.40
21425;DHT22;10873;51.132;16.848;2023-05-20T08:30:54;25.30;58.40
21425;DHT22;10873;51.132;16.848;2023-05-20T08:33:21;25.20;58.30
21425;DHT22;10873;51.132;16.848;2023-05-20T08:35:47;25.20;58.30
21425;DHT22;10873;51.132;16.848;2023-05-20T08:38:13;25.20;58.20
21425;DHT22;10873;51.132;16.848;2023-05-20T08:40:39;25.20;58.50
21425;DHT22;10873;51.132;16.848;2023-05-20T08:43:05;25.20;58.80
21425;DHT22;10873;51.132;16.848;2023-05-20T08:45:32;25.20;58.90
21425;DHT22;10873;51.132;16.848;2023-05-20T08:48:00;25.20;58.80
21425;DHT22;10873;51.132;16.848;2023-05-20T08:50:27;25.20;58.80
21425;DHT22;10873;51.132;16.848;2023-05-20T08:52:53;25.20;58.80
21425;DHT22;10873;51.132;16.848;2023-05-20T08:55:25;25.20;58.80
21425;DHT22;10873;51.132;16.848;2023-05-20T08:57:52;25.20;58.70
21425;DHT22;10873;51.132;16.848;2023-05-20T09:00:20;25.20;60.10
21425;DHT22;10873;51.132;16.848;2023-05-20T09:02:48;25.20;60.80
21425;DHT22;10873;51.132;16.848;2023-05-20T09:05:16;25.20;61.10
21425;DHT22;10873;51.132;16.848;2023-05-20T09:07:42;25.20;61.50
21425;DHT22;10873;51.132;16.848;2023-05-20T09:10:09;25.20;62.20
21425;DHT22;10873;51.132;16.848;2023-05-20T09:12:36;25.20;63.60
21425;DHT22;10873;51.132;16.848;2023-05-20T09:15:03;25.30;62.90
21425;DHT22;10873;51.132;16.848;2023-05-20T09:17:30;25.40;62.60
21425;DHT22;10873;51.132;16.848;2023-05-20T09:19:56;25.50;63.80
21425;DHT22;10873;51.132;16.848;2023-05-20T09:22:24;25.60;66.00
21425;DHT22;10873;51.132;16.848;2023-05-20T09:24:50;25.90;68.70
21425;DHT22;10873;51.132;16.848;2023-05-20T09:27:17;26.30;69.20
21425;DHT22;10873;51.132;16.848;2023-05-20T09:29:43;26.60;69.20
21425;DHT22;10873;51.132;16.848;2023-05-20T09:32:09;27.00;68.60
21425;DHT22;10873;51.132;16.848;2023-05-20T09:34:36;27.30;69.30
21425;DHT22;10873;51.132;16.848;2023-05-20T09:37:02;27.60;68.20
21425;DHT22;10873;51.132;16.848;2023-05-20T09:39:35;27.90;66.60
21425;DHT22;10873;51.132;16.848;2023-05-20T09:42:08;28.10;66.30
21425;DHT22;10873;51.132;16.848;2023-05-20T09:44:37;28.30;66.80
21425;DHT22;10873;51.132;16.848;2023-05-20T09:47:04;28.60;66.90
21425;DHT22;10873;51.132;16.848;2023-05-20T09:49:32;28.80;67.10
21425;DHT22;10873;51.132;16.848;2023-05-20T09:52:02;29.10;67.80
21425;DHT22;10873;51.132;16.848;2023-05-20T09:54:28;29.30;67.10
21425;DHT22;10873;51.132;16.848;2023-05-20T09:56:58;29.50;66.90
21425;DHT22;10873;51.132;16.848;2023-05-20T09:59:25;29.70;66.70
21425;DHT22;10873;51.132;16.848;2023-05-20T10:01:52;29.90;66.40
21425;DHT22;10873;51.132;16.848;2023-05-20T10:04:19;30.10;66.30
21425;DHT22;10873;51.132;16.848;2023-05-20T10:06:59;30.30;65.50
21425;DHT22;10873;51.132;16.848;2023-05-20T10:09:41;30.50;64.90
21425;DHT22;10873;51.132;16.848;2023-05-20T10:12:19;30.70;64.90
21425;DHT22;10873;51.132;16.848;2023-05-20T10:14:57;31.00;64.20
21425;DHT22;10873;51.132;16.848;2023-05-20T10:17:34;31.30;63.20
21425;DHT22;10873;51.132;16.848;2023-05-20T10:20:06;31.40;62.10
21425;DHT22;10873;51.132;16.848;2023-05-20T10:22:34;31.70;62.50
21425;DHT22;10873;51.132;16.848;2023-05-20T10:25:04;31.80;64.50
21425;DHT22;10873;51.132;16.848;2023-05-20T10:27:45;31.70;61.90
21425;DHT22;10873;51.132;16.848;2023-05-20T10:30:15;31.50;62.00
21425;DHT22;10873;51.132;16.848;2023-05-20T10:32:48;31.60;61.30
21425;DHT22;10873;51.132;16.848;2023-05-20T10:35:21;31.80;60.60
21425;DHT22;10873;51.132;16.848;2023-05-20T10:37:47;32.00;60.00
21425;DHT22;10873;51.132;16.848;2023-05-20T10:40:15;32.10;59.30
21425;DHT22;10873;51.132;16.848;2023-05-20T10:42:44;32.30;58.90
21425;DHT22;10873;51.132;16.848;2023-05-20T10:45:23;32.40;58.20
21425;DHT22;10873;51.132;16.848;2023-05-20T10:47:53;32.60;58.00
21425;DHT22;10873;51.132;16.848;2023-05-20T10:50:27;32.60;59.80
21425;DHT22;10873;51.132;16.848;2023-05-20T10:52:54;32.40;58.80
21425;DHT22;10873;51.132;16.848;2023-05-20T10:55:21;32.20;59.40
21425;DHT22;10873;51.132;16.848;2023-05-20T10:57:50;31.90;59.00
21425;DHT22;10873;51.132;16.848;2023-05-20T11:00:16;31.70;59.60
21425;DHT22;10873;51.132;16.848;2023-05-20T11:02:43;31.40;59.20
21425;DHT22;10873;51.132;16.848;2023-05-20T11:05:12;31.20;57.90
21425;DHT22;10873;51.132;16.848;2023-05-20T11:07:39;31.00;55.50
21425;DHT22;10873;51.132;16.848;2023-05-20T11:10:07;30.70;58.60
21425;DHT22;10873;51.132;16.848;2023-05-20T11:12:34;30.60;60.20
21425;DHT22;10873;51.132;16.848;2023-05-20T11:15:02;30.70;61.00
21425;DHT22;10873;51.132;16.848;2023-05-20T11:17:29;30.90;61.60
21425;DHT22;10873;51.132;16.848;2023-05-20T11:19:55;31.10;62.30
21425;DHT22;10873;51.132;16.848;2023-05-20T11:22:21;31.40;62.20
21425;DHT22;10873;51.132;16.848;2023-05-20T11:24:47;31.60;62.90
21425;DHT22;10873;51.132;16.848;2023-05-20T11:27:13;31.80;64.20
21425;DHT22;10873;51.132;16.848;2023-05-20T11:29:39;31.80;65.10
21425;DHT22;10873;51.132;16.848;2023-05-20T11:32:07;31.70;64.30
21425;DHT22;10873;51.132;16.848;2023-05-20T11:34:33;31.70;64.20
21425;DHT22;10873;51.132;16.848;2023-05-20T11:37:00;31.80;64.10
21425;DHT22;10873;51.132;16.848;2023-05-20T11:39:29;31.90;63.70
21425;DHT22;10873;51.132;16.848;2023-05-20T11:41:56;32.10;62.90
21425;DHT22;10873;51.132;16.848;2023-05-20T11:44:23;32.20;61.80
21425;DHT22;10873;51.132;16.848;2023-05-20T11:46:49;32.40;61.60
21425;DHT22;10873;51.132;16.848;2023-05-20T11:49:16;32.50;60.50
21425;DHT22;10873;51.132;16.848;2023-05-20T11:51:43;32.70;63.70
21425;DHT22;10873;51.132;16.848;2023-05-20T11:54:09;32.50;63.70
21425;DHT22;10873;51.132;16.848;2023-05-20T11:56:36;32.40;61.50
21425;DHT22;10873;51.132;16.848;2023-05-20T11:59:04;32.40;61.00
21425;DHT22;10873;51.132;16.848;2023-05-20T12:01:31;32.50;60.40
21425;DHT22;10873;51.132;16.848;2023-05-20T12:04:07;32.60;59.80
21425;DHT22;10873;51.132;16.848;2023-05-20T12:06:35;32.80;59.20
21425;DHT22;10873;51.132;16.848;2023-05-20T12:09:12;33.00;60.80
21425;DHT22;10873;51.132;16.848;2023-05-20T12:11:39;32.90;60.90
21425;DHT22;10873;51.132;16.848;2023-05-20T12:14:06;32.70;59.40
21425;DHT22;10873;51.132;16.848;2023-05-20T12:16:33;32.70;59.50
21425;DHT22;10873;51.132;16.848;2023-05-20T12:19:00;32.70;59.00
21425;DHT22;10873;51.132;16.848;2023-05-20T12:21:28;32.90;58.40
21425;DHT22;10873;51.132;16.848;2023-05-20T12:23:55;33.10;59.40
21425;DHT22;10873;51.132;16.848;2023-05-20T12:26:22;32.90;58.30
21425;DHT22;10873;51.132;16.848;2023-05-20T12:28:48;32.80;57.70
21425;DHT22;10873;51.132;16.848;2023-05-20T12:31:14;32.80;57.80
21425;DHT22;10873;51.132;16.848;2023-05-20T12:33:40;32.70;57.00
21425;DHT22;10873;51.132;16.848;2023-05-20T12:36:06;32.50;57.00
21425;DHT22;10873;51.132;16.848;2023-05-20T12:38:33;32.30;56.80
21425;DHT22;10873;51.132;16.848;2023-05-20T12:41:00;32.10;56.60
21425;DHT22;10873;51.132;16.848;2023-05-20T12:43:26;32.00;56.30
21425;DHT22;10873;51.132;16.848;2023-05-20T12:45:53;31.80;56.30
21425;DHT22;10873;51.132;16.848;2023-05-20T12:48:19;31.70;56.00
21425;DHT22;10873;51.132;16.848;2023-05-20T12:50:45;31.60;55.50
21425;DHT22;10873;51.132;16.848;2023-05-20T12:53:11;31.40;55.20
21425;DHT22;10873;51.132;16.848;2023-05-20T12:55:37;31.20;55.10
21425;DHT22;10873;51.132;16.848;2023-05-20T12:58:05;31.00;55.00
21425;DHT22;10873;51.132;16.848;2023-05-20T13:00:33;30.90;55.00
21425;DHT22;10873;51.132;16.848;2023-05-20T13:02:59;30.70;55.00
21425;DHT22;10873;51.132;16.848;2023-05-20T13:05:26;30.60;54.90
21425;DHT22;10873;51.132;16.848;2023-05-20T13:07:52;30.50;54.80
21425;DHT22;10873;51.132;16.848;2023-05-20T13:10:18;30.40;54.70
21425;DHT22;10873;51.132;16.848;2023-05-20T13:12:44;30.30;54.60
21425;DHT22;10873;51.132;16.848;2023-05-20T13:15:12;30.20;55.40
21425;DHT22;10873;51.132;16.848;2023-05-20T13:17:39;30.10;54.70
21425;DHT22;10873;51.132;16.848;2023-05-20T13:20:06;30.00;54.60
21425;DHT22;10873;51.132;16.848;2023-05-20T13:22:32;29.90;54.70
21425;DHT22;10873;51.132;16.848;2023-05-20T13:24:59;29.90;54.70
21425;DHT22;10873;51.132;16.848;2023-05-20T13:27:25;29.80;54.70
21425;DHT22;10873;51.132;16.848;2023-05-20T13:29:51;29.70;54.80
21425;DHT22;10873;51.132;16.848;2023-05-20T13:32:19;29.60;54.80
21425;DHT22;10873;51.132;16.848;2023-05-20T13:34:45;29.60;54.90
21425;DHT22;10873;51.132;16.848;2023-05-20T13:37:11;29.50;54.80
21425;DHT22;10873;51.132;16.848;2023-05-20T13:39:37;29.50;54.90
21425;DHT22;10873;51.132;16.848;2023-05-20T13:42:03;29.40;54.90
21425;DHT22;10873;51.132;16.848;2023-05-20T13:44:30;29.40;54.90
21425;DHT22;10873;51.132;16.848;2023-05-20T13:46:55;29.40;54.90
21425;DHT22;10873;51.132;16.848;2023-05-20T13:49:23;29.30;56.80
21425;DHT22;10873;51.132;16.848;2023-05-20T13:51:51;29.30;58.90
21425;DHT22;10873;51.132;16.848;2023-05-20T13:54:17;29.30;59.60
21425;DHT22;10873;51.132;16.848;2023-05-20T13:56:43;29.30;60.10
21425;DHT22;10873;51.132;16.848;2023-05-20T13:59:09;29.30;61.10
21425;DHT22;10873;51.132;16.848;2023-05-20T14:01:35;29.50;63.30
21425;DHT22;10873;51.132;16.848;2023-05-20T14:04:02;29.80;64.00
21425;DHT22;10873;51.132;16.848;2023-05-20T14:06:29;30.10;64.10
21425;DHT22;10873;51.132;16.848;2023-05-20T14:08:56;30.50;64.60
21425;DHT22;10873;51.132;16.848;2023-05-20T14:11:22;30.80;64.60
21425;DHT22;10873;51.132;16.848;2023-05-20T14:13:48;31.00;65.00
21425;DHT22;10873;51.132;16.848;2023-05-20T14:16:14;31.30;65.60
21425;DHT22;10873;51.132;16.848;2023-05-20T14:18:40;31.50;67.00
21425;DHT22;10873;51.132;16.848;2023-05-20T14:21:06;31.60;68.00
21425;DHT22;10873;51.132;16.848;2023-05-20T14:23:34;31.50;65.90
21425;DHT22;10873;51.132;16.848;2023-05-20T14:26:00;31.40;66.50
21425;DHT22;10873;51.132;16.848;2023-05-20T14:28:26;31.60;66.40
21425;DHT22;10873;51.132;16.848;2023-05-20T14:30:52;31.70;66.60
21425;DHT22;10873;51.132;16.848;2023-05-20T14:33:19;31.90;67.20
21425;DHT22;10873;51.132;16.848;2023-05-20T14:35:45;31.80;67.00
21425;DHT22;10873;51.132;16.848;2023-05-20T14:38:11;31.70;66.00
21425;DHT22;10873;51.132;16.848;2023-05-20T14:40:38;31.70;65.60
21425;DHT22;10873;51.132;16.848;2023-05-20T14:43:05;31.90;65.00
21425;DHT22;10873;51.132;16.848;2023-05-20T14:45:30;32.00;64.20
21425;DHT22;10873;51.132;16.848;2023-05-20T14:47:56;32.20;63.70
21425;DHT22;10873;51.132;16.848;2023-05-20T14:50:22;32.40;63.40
21425;DHT22;10873;51.132;16.848;2023-05-20T14:52:48;32.50;62.60
21425;DHT22;10873;51.132;16.848;2023-05-20T14:55:14;32.70;63.50
21425;DHT22;10873;51.132;16.848;2023-05-20T14:57:42;32.70;65.20
21425;DHT22;10873;51.132;16.848;2023-05-20T15:00:09;32.70;64.10
21425;DHT22;10873;51.132;16.848;2023-05-20T15:02:36;32.60;63.30
21425;DHT22;10873;51.132;16.848;2023-05-20T15:05:02;32.60;63.30
21425;DHT22;10873;51.132;16.848;2023-05-20T15:07:28;32.70;61.40
21425;DHT22;10873;51.132;16.848;2023-05-20T15:09:54;32.90;60.60
21425;DHT22;10873;51.132;16.848;2023-05-20T15:12:20;33.10;63.00
21425;DHT22;10873;51.132;16.848;2023-05-20T15:14:47;33.10;63.00
21425;DHT22;10873;51.132;16.848;2023-05-20T15:17:14;33.00;61.80